Terminal Aerodrome Forecast
Issued by NWS

Home | Current Version | Previous Version | Text Only | Print | Product List | Glossary On
Versions: 1 2 3 4 5 6 7 8 9 10 11 12 13 14 15 16 17 18 19
902
FTUS41 KALY 251905 AAA
TAFPSF
TAF AMD
KPSF 251905Z 2519/2618 20011G16KT P6SM OVC030
     FM252100 22007KT P6SM VCSH SCT030 BKN070 OVC200
     FM260200 22005KT 4SM BR VCSH SCT006 BKN020 OVC040
     FM260600 24004KT 2SM BR VCSH BKN006 OVC010
     FM261200 29003KT 1SM SHRA BR OVC007=

USA.gov is the U.S. government's official web portal to all federal, state and local government web resources and services.